createdAt,value
2019-05-07T00:00:59.017Z,783.00
2019-05-07T00:01:59.712Z,783.00
2019-05-07T00:03:00.620Z,783.00
2019-05-07T00:04:02.004Z,783.00
2019-05-07T00:05:02.642Z,783.00
2019-05-07T00:06:02.769Z,783.00
2019-05-07T00:07:02.531Z,782.00
2019-05-07T00:08:03.215Z,782.00
2019-05-07T00:09:03.768Z,782.00
2019-05-07T00:10:05.697Z,783.00
2019-05-07T00:11:06.673Z,782.00
2019-05-07T00:12:07.548Z,782.00
2019-05-07T00:13:08.286Z,782.00
2019-05-07T00:14:08.488Z,782.00
2019-05-07T00:15:09.032Z,782.00
2019-05-07T00:16:08.734Z,782.00
2019-05-07T00:17:09.944Z,781.00
2019-05-07T00:18:09.982Z,782.00
2019-05-07T00:19:12.820Z,780.00
2019-05-07T00:20:12.712Z,781.00
2019-05-07T00:21:12.694Z,781.00
2019-05-07T00:22:12.589Z,782.00
2019-05-07T00:23:12.802Z,782.00
2019-05-07T00:24:14.508Z,782.00
2019-05-07T00:25:15.471Z,780.00
2019-05-07T00:26:17.305Z,780.00
2019-05-07T00:27:17.098Z,778.00
2019-05-07T00:28:17.732Z,777.00
2019-05-07T00:29:18.463Z,778.00
2019-05-07T00:30:19.206Z,781.00
2019-05-07T00:31:19.872Z,782.00
2019-05-07T00:32:22.059Z,782.00
2019-05-07T00:33:19.817Z,782.00
2019-05-07T00:34:21.966Z,781.00
2019-05-07T00:35:22.553Z,782.00
2019-05-07T00:36:23.055Z,781.00
2019-05-07T00:37:22.315Z,781.00
2019-05-07T00:38:24.113Z,783.00
2019-05-07T00:39:24.913Z,782.00
2019-05-07T00:39:33.440Z,782.00
2019-05-07T00:40:34.867Z,781.00
2019-05-07T00:41:34.864Z,782.00
2019-05-07T00:42:35.774Z,782.00
2019-05-07T00:43:36.556Z,782.00
2019-05-07T00:44:37.410Z,782.00
2019-05-07T00:45:38.167Z,783.00
2019-05-07T00:46:39.082Z,782.00
2019-05-07T00:47:39.968Z,782.00
2019-05-07T00:48:42.235Z,782.00
2019-05-07T00:49:40.183Z,782.00
2019-05-07T00:50:42.140Z,782.00
2019-05-07T00:51:42.510Z,782.00
2019-05-07T00:52:43.109Z,782.00
2019-05-07T00:53:43.649Z,783.00
2019-05-07T00:54:44.765Z,784.00
2019-05-07T00:55:45.616Z,784.00
2019-05-07T00:56:46.516Z,784.00
2019-05-07T00:57:47.403Z,783.00
2019-05-07T00:58:48.289Z,783.00
2019-05-07T00:59:49.222Z,783.00
2019-05-07T01:00:49.323Z,783.00
2019-05-07T01:01:49.360Z,784.00
2019-05-07T01:02:48.434Z,784.00
2019-05-07T01:03:50.298Z,785.00
2019-05-07T01:04:53.005Z,784.00
2019-05-07T01:05:52.491Z,783.00
2019-05-07T01:06:50.454Z,782.00
2019-05-07T01:07:52.894Z,782.00
2019-05-07T01:08:52.558Z,782.00
2019-05-07T01:09:52.414Z,781.00
2019-05-07T01:10:52.820Z,781.00
2019-05-07T01:11:52.598Z,780.00
2019-05-07T01:12:53.314Z,782.00
2019-05-07T01:13:55.007Z,781.00
2019-05-07T01:14:55.717Z,780.00
2019-05-07T01:15:56.538Z,782.00
2019-05-07T01:16:57.378Z,781.00
2019-05-07T01:17:58.124Z,782.00
2019-05-07T01:18:58.827Z,782.00
2019-05-07T01:19:59.640Z,781.00
2019-05-07T01:21:02.422Z,780.00
2019-05-07T01:21:59.929Z,780.00
2019-05-07T01:23:02.651Z,780.00
2019-05-07T01:24:03.183Z,780.00
2019-05-07T01:25:02.448Z,782.00
2019-05-07T01:26:03.146Z,782.00
2019-05-07T01:27:03.716Z,783.00
2019-05-07T01:28:05.405Z,783.00
2019-05-07T01:29:06.372Z,784.00
2019-05-07T01:30:07.289Z,784.00
2019-05-07T01:31:07.070Z,783.00
2019-05-07T01:32:08.849Z,782.00
2019-05-07T01:33:12.156Z,782.00
2019-05-07T01:34:09.627Z,782.00
2019-05-07T01:35:12.961Z,782.00
2019-05-07T01:36:13.098Z,782.00
2019-05-07T01:37:12.570Z,781.00
2019-05-07T01:38:12.752Z,782.00
2019-05-07T01:39:13.100Z,781.00
2019-05-07T01:40:12.933Z,783.00
2019-05-07T01:41:14.673Z,783.00
2019-05-07T01:41:23.192Z,783.00
2019-05-07T01:42:24.848Z,784.00
2019-05-07T01:43:24.953Z,785.00
2019-05-07T01:44:25.738Z,784.00
2019-05-07T01:45:26.512Z,784.00
2019-05-07T01:46:27.287Z,782.00
2019-05-07T01:47:28.183Z,783.00
2019-05-07T01:48:28.251Z,783.00
2019-05-07T01:49:29.222Z,783.00
2019-05-07T01:50:32.117Z,782.00
2019-05-07T01:51:29.750Z,782.00
2019-05-07T01:52:33.157Z,782.00
2019-05-07T01:53:32.349Z,782.00
2019-05-07T01:54:33.259Z,782.00
2019-05-07T01:55:31.994Z,782.00
2019-05-07T01:56:33.158Z,782.00
2019-05-07T01:57:32.861Z,782.00
2019-05-07T01:58:33.496Z,782.00
2019-05-07T01:59:35.384Z,782.00
2019-05-07T02:00:35.483Z,782.00
2019-05-07T02:01:35.970Z,782.00
2019-05-07T02:02:35.533Z,782.00
2019-05-07T02:03:37.372Z,782.00
2019-05-07T02:04:38.131Z,782.00
2019-05-07T02:05:38.953Z,783.00
2019-05-07T02:06:39.935Z,782.00
2019-05-07T02:07:42.761Z,783.00
2019-05-07T02:08:42.290Z,782.00
2019-05-07T02:09:42.463Z,782.00
2019-05-07T02:10:42.805Z,782.00
2019-05-07T02:11:42.773Z,782.00
2019-05-07T02:12:43.997Z,782.00
2019-05-07T02:13:44.838Z,783.00
2019-05-07T02:14:45.791Z,783.00
2019-05-07T02:15:57.406Z,784.00
2019-05-07T02:16:45.757Z,784.00
2019-05-07T02:17:46.890Z,783.00
2019-05-07T02:18:48.736Z,782.00
2019-05-07T02:19:48.601Z,782.00
2019-05-07T02:20:49.553Z,783.00
2019-05-07T02:21:50.330Z,783.00
2019-05-07T02:22:53.178Z,783.00
2019-05-07T02:23:52.316Z,782.00
2019-05-07T02:24:52.411Z,782.00
2019-05-07T02:25:52.698Z,781.00
2019-05-07T02:26:52.971Z,781.00
2019-05-07T02:27:54.793Z,782.00
2019-05-07T02:28:55.541Z,780.00
2019-05-07T02:29:56.396Z,780.00
2019-05-07T02:30:57.259Z,780.00
2019-05-07T02:31:58.045Z,780.00
2019-05-07T02:32:58.749Z,781.00
2019-05-07T02:33:58.540Z,780.00
2019-05-07T02:34:59.717Z,782.00
2019-05-07T02:36:03.032Z,781.00
2019-05-07T02:36:59.736Z,782.00
2019-05-07T02:38:03.189Z,782.00
2019-05-07T02:39:03.786Z,782.00
2019-05-07T02:40:04.433Z,782.00
2019-05-07T02:41:03.084Z,781.00
2019-05-07T02:42:03.809Z,782.00
2019-05-07T02:43:04.286Z,783.00
2019-05-07T02:43:14.207Z,783.00
2019-05-07T02:44:14.362Z,783.00
2019-05-07T02:45:14.926Z,784.00
2019-05-07T02:46:26.465Z,783.00
2019-05-07T02:47:16.648Z,783.00
2019-05-07T02:48:18.482Z,783.00
2019-05-07T02:49:18.698Z,782.00
2019-05-07T02:50:22.602Z,781.00
2019-05-07T02:51:19.471Z,782.00
2019-05-07T02:52:22.926Z,782.00
2019-05-07T02:53:22.527Z,784.00
2019-05-07T02:54:23.789Z,785.00
2019-05-07T02:55:23.174Z,784.00
2019-05-07T02:56:23.628Z,783.00
2019-05-07T02:57:23.963Z,783.00
2019-05-07T02:58:23.978Z,783.00
2019-05-07T02:59:24.032Z,782.00
2019-05-07T03:00:24.944Z,783.00
2019-05-07T03:01:25.811Z,783.00
2019-05-07T03:02:26.457Z,783.00
2019-05-07T03:03:27.179Z,783.00
2019-05-07T03:04:28.144Z,783.00
2019-05-07T03:05:28.983Z,783.00
2019-05-07T03:06:29.828Z,783.00
2019-05-07T03:07:33.381Z,784.00
2019-05-07T03:08:32.960Z,784.00
2019-05-07T03:09:32.868Z,783.00
2019-05-07T03:10:33.979Z,784.00
2019-05-07T03:11:33.941Z,784.00
2019-05-07T03:12:33.758Z,784.00
2019-05-07T03:13:34.263Z,783.00
2019-05-07T03:14:36.107Z,785.00
2019-05-07T03:15:36.916Z,786.00
2019-05-07T03:16:43.717Z,787.00
2019-05-07T03:17:37.518Z,787.00
2019-05-07T03:18:39.348Z,785.00
2019-05-07T03:19:42.789Z,784.00
2019-05-07T03:20:42.817Z,783.00
2019-05-07T03:21:44.089Z,783.00
2019-05-07T03:22:42.826Z,783.00
2019-05-07T03:23:43.011Z,783.00
2019-05-07T03:24:43.779Z,782.00
2019-05-07T03:25:43.864Z,783.00
2019-05-07T03:26:45.803Z,781.00
2019-05-07T03:27:46.624Z,781.00
2019-05-07T03:28:47.383Z,782.00
2019-05-07T03:29:48.236Z,782.00
2019-05-07T03:30:49.036Z,782.00
2019-05-07T03:31:49.658Z,783.00
2019-05-07T03:32:55.655Z,783.00
2019-05-07T03:33:55.401Z,782.00
2019-05-07T03:34:51.009Z,783.00
2019-05-07T03:35:56.004Z,782.00
2019-05-07T03:36:56.386Z,782.00
2019-05-07T03:37:54.641Z,782.00
2019-05-07T03:38:53.840Z,782.00
2019-05-07T03:39:53.933Z,782.00
2019-05-07T03:40:54.476Z,782.00
2019-05-07T03:41:56.137Z,783.00
2019-05-07T03:42:56.861Z,783.00
2019-05-07T03:43:57.871Z,783.00
2019-05-07T03:44:58.784Z,783.00
2019-05-07T03:45:58.802Z,783.00
2019-05-07T03:47:06.038Z,783.00
2019-05-07T03:47:58.872Z,783.00
2019-05-07T03:49:03.834Z,783.00
2019-05-07T03:50:03.293Z,782.00
2019-05-07T03:51:03.384Z,784.00
2019-05-07T03:52:03.832Z,783.00
2019-05-07T03:53:02.731Z,782.00
2019-05-07T03:54:03.180Z,783.00
2019-05-07T03:55:03.941Z,783.00
2019-05-07T03:56:04.647Z,783.00
2019-05-07T03:57:11.355Z,783.00
2019-05-07T03:58:05.856Z,783.00
2019-05-07T03:59:07.816Z,783.00
2019-05-07T03:59:16.915Z,783.00
2019-05-07T04:00:18.673Z,784.00
2019-05-07T04:01:19.401Z,783.00
2019-05-07T04:02:23.439Z,784.00
2019-05-07T04:03:24.478Z,784.00
2019-05-07T04:04:22.983Z,783.00
2019-05-07T04:05:23.226Z,785.00
2019-05-07T04:06:23.339Z,784.00
2019-05-07T04:07:23.474Z,785.00
2019-05-07T04:08:23.972Z,785.00
2019-05-07T04:09:24.319Z,783.00
2019-05-07T04:10:24.872Z,784.00
2019-05-07T04:11:26.659Z,784.00
2019-05-07T04:12:26.271Z,784.00
2019-05-07T04:13:27.039Z,784.00
2019-05-07T04:14:28.836Z,783.00
2019-05-07T04:15:32.739Z,784.00
2019-05-07T04:16:29.487Z,785.00
2019-05-07T04:17:33.927Z,784.00
2019-05-07T04:18:32.977Z,783.00
2019-05-07T04:19:32.879Z,783.00
2019-05-07T04:20:33.340Z,783.00
2019-05-07T04:21:34.390Z,783.00
2019-05-07T04:22:34.564Z,783.00
2019-05-07T04:23:34.515Z,783.00
2019-05-07T04:24:33.804Z,785.00
2019-05-07T04:25:34.701Z,786.00
2019-05-07T04:26:34.587Z,786.00
2019-05-07T04:27:36.329Z,787.00
2019-05-07T04:28:38.186Z,788.00
2019-05-07T04:29:37.632Z,787.00
2019-05-07T04:30:37.673Z,786.00
2019-05-07T04:31:38.057Z,786.00
2019-05-07T04:32:37.751Z,785.00
2019-05-07T04:33:39.638Z,785.00
2019-05-07T04:34:40.334Z,784.00
2019-05-07T04:35:43.444Z,783.00
2019-05-07T04:36:43.722Z,783.00
2019-05-07T04:37:42.787Z,784.00
2019-05-07T04:38:43.981Z,784.00
2019-05-07T04:39:42.994Z,785.00
2019-05-07T04:40:43.658Z,784.00
2019-05-07T04:41:43.833Z,784.00
2019-05-07T04:42:44.482Z,784.00
2019-05-07T04:43:46.289Z,784.00
2019-05-07T04:44:47.121Z,783.00
2019-05-07T04:45:46.852Z,783.00
2019-05-07T04:46:48.720Z,783.00
2019-05-07T04:47:49.428Z,784.00
2019-05-07T04:48:52.831Z,784.00
2019-05-07T04:49:49.931Z,783.00
2019-05-07T04:50:54.212Z,784.00
2019-05-07T04:51:52.937Z,784.00
2019-05-07T04:52:54.085Z,783.00
2019-05-07T04:53:54.113Z,783.00
2019-05-07T04:54:53.196Z,783.00
2019-05-07T04:55:54.938Z,784.00
2019-05-07T04:56:55.634Z,784.00
2019-05-07T04:57:56.365Z,783.00
2019-05-07T04:58:57.360Z,783.00
2019-05-07T04:59:58.040Z,781.00
2019-05-07T05:00:58.912Z,782.00
2019-05-07T05:01:58.572Z,783.00
2019-05-07T05:03:03.129Z,782.00
2019-05-07T05:04:17.508Z,782.00
2019-05-07T05:05:03.408Z,782.00
2019-05-07T05:06:02.627Z,782.00
2019-05-07T05:07:02.786Z,782.00
2019-05-07T05:08:03.889Z,782.00
2019-05-07T05:09:03.211Z,780.00
2019-05-07T05:10:03.869Z,781.00
2019-05-07T05:11:04.633Z,782.00
2019-05-07T05:12:05.994Z,782.00
2019-05-07T05:13:06.790Z,780.00
2019-05-07T05:14:08.182Z,781.00
2019-05-07T05:15:06.827Z,782.00
2019-05-07T05:16:08.745Z,784.00
2019-05-07T05:16:19.292Z,784.00
2019-05-07T05:17:22.432Z,783.00
2019-05-07T05:18:21.960Z,785.00
2019-05-07T05:19:22.981Z,784.00
2019-05-07T05:20:22.531Z,785.00
2019-05-07T05:21:24.302Z,784.00
2019-05-07T05:22:24.462Z,785.00
2019-05-07T05:23:25.434Z,785.00
2019-05-07T05:24:25.423Z,784.00
2019-05-07T05:25:26.103Z,785.00
2019-05-07T05:26:26.371Z,787.00
2019-05-07T05:27:29.872Z,786.00
2019-05-07T05:28:26.501Z,786.00
2019-05-07T05:29:28.288Z,786.00
2019-05-07T05:30:29.042Z,784.00
2019-05-07T05:31:29.997Z,784.00
2019-05-07T05:32:32.468Z,784.00
2019-05-07T05:33:32.250Z,784.00
2019-05-07T05:34:32.932Z,783.00
2019-05-07T05:35:32.181Z,783.00
2019-05-07T05:36:33.002Z,782.00
2019-05-07T05:37:32.585Z,783.00
2019-05-07T05:38:34.422Z,783.00
2019-05-07T05:39:34.453Z,783.00
2019-05-07T05:40:35.181Z,782.00
2019-05-07T05:41:37.916Z,782.00
2019-05-07T05:42:35.740Z,781.00
2019-05-07T05:43:37.504Z,782.00
2019-05-07T05:44:38.195Z,782.00
2019-05-07T05:45:39.936Z,781.00
2019-05-07T05:46:39.939Z,781.00
2019-05-07T05:47:42.887Z,782.00
2019-05-07T05:48:39.620Z,780.00
2019-05-07T05:49:42.915Z,780.00
2019-05-07T05:50:42.278Z,780.00
2019-05-07T05:51:42.987Z,780.00
2019-05-07T05:52:42.506Z,780.00
2019-05-07T05:53:43.381Z,780.00
2019-05-07T05:54:43.160Z,778.00
2019-05-07T05:55:44.849Z,778.00
2019-05-07T05:56:44.859Z,778.00
2019-05-07T05:57:45.279Z,778.00
2019-05-07T05:58:45.285Z,777.00
2019-05-07T05:59:51.183Z,777.00
2019-05-07T06:00:45.849Z,780.00
2019-05-07T06:01:47.617Z,778.00
2019-05-07T06:02:48.280Z,778.00
2019-05-07T06:03:48.264Z,778.00
2019-05-07T06:04:48.939Z,778.00
2019-05-07T06:05:49.738Z,777.00
2019-05-07T06:06:49.740Z,777.00
2019-05-07T06:07:52.088Z,777.00
2019-05-07T06:08:51.934Z,775.00
2019-05-07T06:09:52.694Z,776.00
2019-05-07T06:10:51.910Z,776.00
2019-05-07T06:11:52.003Z,776.00
2019-05-07T06:12:52.324Z,775.00
2019-05-07T06:13:53.122Z,776.00
2019-05-07T06:14:53.960Z,775.00
2019-05-07T06:15:53.374Z,777.00
2019-05-07T06:16:53.167Z,775.00
2019-05-07T06:17:54.921Z,776.00
2019-05-07T06:18:55.627Z,778.00
2019-05-07T06:19:04.676Z,780.00
2019-05-07T06:20:06.519Z,778.00
2019-05-07T06:21:06.509Z,778.00
2019-05-07T06:22:07.192Z,778.00
2019-05-07T06:23:08.163Z,777.00
2019-05-07T06:24:09.139Z,777.00
2019-05-07T06:25:09.041Z,776.00
2019-05-07T06:26:08.452Z,778.00
2019-05-07T06:27:09.172Z,778.00
2019-05-07T06:28:09.859Z,778.00
2019-05-07T06:29:11.951Z,778.00
2019-05-07T06:30:12.198Z,778.00
2019-05-07T06:31:12.769Z,778.00
2019-05-07T06:32:13.124Z,778.00
2019-05-07T06:33:13.020Z,777.00
2019-05-07T06:34:13.206Z,777.00
2019-05-07T06:35:13.547Z,777.00
2019-05-07T06:36:14.596Z,776.00
2019-05-07T06:37:15.691Z,778.00
2019-05-07T06:38:16.102Z,777.00
2019-05-07T06:39:16.787Z,776.00
2019-05-07T06:40:19.623Z,778.00
2019-05-07T06:41:17.324Z,778.00
2019-05-07T06:42:19.033Z,778.00
2019-05-07T06:43:21.864Z,778.00
2019-05-07T06:44:19.138Z,778.00
2019-05-07T06:45:19.522Z,778.00
2019-05-07T06:46:20.426Z,778.00
2019-05-07T06:47:22.184Z,778.00
2019-05-07T06:48:34.680Z,778.00
2019-05-07T06:49:22.353Z,778.00
2019-05-07T06:50:22.828Z,778.00
2019-05-07T06:51:22.823Z,778.00
2019-05-07T06:52:23.310Z,778.00
2019-05-07T06:53:23.509Z,778.00
2019-05-07T06:54:25.385Z,778.00
2019-05-07T06:55:26.487Z,778.00
2019-05-07T06:56:27.240Z,777.00
2019-05-07T06:57:27.604Z,777.00
2019-05-07T06:58:27.971Z,778.00
2019-05-07T06:59:32.577Z,776.00
2019-05-07T07:00:28.014Z,777.00
2019-05-07T07:01:32.101Z,778.00
2019-05-07T07:02:29.724Z,776.00
2019-05-07T07:03:32.748Z,776.00
2019-05-07T07:04:32.572Z,776.00
2019-05-07T07:05:33.028Z,776.00
2019-05-07T07:06:32.348Z,776.00
2019-05-07T07:07:37.385Z,776.00
2019-05-07T07:08:33.857Z,775.00
2019-05-07T07:09:35.478Z,775.00
2019-05-07T07:10:35.913Z,775.00
2019-05-07T07:11:35.995Z,776.00
2019-05-07T07:12:35.643Z,778.00
2019-05-07T07:13:37.280Z,780.00
2019-05-07T07:14:37.886Z,776.00
2019-05-07T07:15:38.512Z,777.00
2019-05-07T07:16:39.164Z,776.00
2019-05-07T07:17:41.894Z,776.00
2019-05-07T07:18:51.329Z,776.00
2019-05-07T07:19:39.762Z,775.00
2019-05-07T07:20:42.996Z,774.00
2019-05-07T07:21:42.181Z,774.00
2019-05-07T07:22:42.672Z,774.00
2019-05-07T07:23:43.473Z,774.00
2019-05-07T07:24:45.290Z,775.00
2019-05-07T07:25:45.353Z,775.00
2019-05-07T07:26:46.183Z,774.00
2019-05-07T07:27:47.019Z,774.00
2019-05-07T07:27:54.551Z,774.00
2019-05-07T07:28:56.356Z,775.00
2019-05-07T07:29:56.750Z,775.00
2019-05-07T07:30:57.146Z,780.00
2019-05-07T07:31:56.802Z,778.00
2019-05-07T07:32:58.431Z,776.00
2019-05-07T07:33:57.593Z,775.00
2019-05-07T07:34:59.516Z,775.00
2019-05-07T07:36:02.335Z,775.00
2019-05-07T07:37:06.099Z,774.00
2019-05-07T07:37:59.894Z,774.00
2019-05-07T07:39:03.615Z,774.00
2019-05-07T07:40:01.961Z,774.00
2019-05-07T07:41:03.011Z,774.00
2019-05-07T07:42:03.009Z,773.00
2019-05-07T07:43:06.947Z,773.00
2019-05-07T07:44:03.606Z,773.00
2019-05-07T07:45:05.076Z,773.00
2019-05-07T07:46:05.674Z,773.00
2019-05-07T07:47:06.344Z,772.00
2019-05-07T07:48:07.222Z,772.00
2019-05-07T07:49:14.020Z,771.00
2019-05-07T07:50:07.922Z,771.00
2019-05-07T07:51:09.656Z,770.00
2019-05-07T07:52:09.494Z,770.00
2019-05-07T07:53:12.933Z,770.00
2019-05-07T07:54:12.537Z,770.00
2019-05-07T07:55:12.623Z,769.00
2019-05-07T07:56:12.117Z,769.00
2019-05-07T07:57:12.602Z,769.00
2019-05-07T07:58:12.102Z,769.00
2019-05-07T07:59:12.610Z,769.00
2019-05-07T08:00:12.757Z,769.00
2019-05-07T08:01:13.947Z,769.00
2019-05-07T08:02:14.801Z,770.00
2019-05-07T08:03:15.659Z,770.00
2019-05-07T08:04:15.507Z,769.00
2019-05-07T08:05:17.302Z,769.00
2019-05-07T08:06:18.148Z,769.00
2019-05-07T08:07:18.352Z,769.00
2019-05-07T08:08:19.201Z,770.00
2019-05-07T08:09:22.262Z,770.00
2019-05-07T08:10:19.189Z,771.00
2019-05-07T08:11:19.374Z,770.00
2019-05-07T08:12:22.166Z,770.00
2019-05-07T08:13:20.099Z,770.00
2019-05-07T08:14:22.052Z,770.00
2019-05-07T08:15:24.705Z,768.00
2019-05-07T08:16:22.244Z,769.00
2019-05-07T08:17:22.592Z,769.00
2019-05-07T08:18:22.831Z,769.00
2019-05-07T08:19:25.233Z,768.00
2019-05-07T08:20:23.847Z,768.00
2019-05-07T08:21:25.612Z,768.00
2019-05-07T08:22:26.278Z,768.00
2019-05-07T08:23:26.899Z,768.00
2019-05-07T08:24:27.527Z,768.00
2019-05-07T08:25:28.190Z,768.00
2019-05-07T08:26:27.272Z,766.00
2019-05-07T08:27:29.126Z,768.00
2019-05-07T08:28:31.943Z,765.00
2019-05-07T08:28:38.503Z,765.00
2019-05-07T08:29:39.907Z,768.00
2019-05-07T08:30:42.018Z,766.00
2019-05-07T08:31:42.384Z,766.00
2019-05-07T08:32:42.392Z,766.00
2019-05-07T08:33:42.577Z,766.00
2019-05-07T08:34:42.840Z,766.00
2019-05-07T08:35:42.050Z,764.00
2019-05-07T08:36:42.467Z,766.00
2019-05-07T08:37:44.205Z,766.00
2019-05-07T08:38:44.875Z,766.00
2019-05-07T08:39:45.717Z,766.00
2019-05-07T08:40:45.799Z,768.00
2019-05-07T08:41:46.475Z,768.00
2019-05-07T08:42:47.195Z,768.00
2019-05-07T08:43:47.881Z,768.00
2019-05-07T08:44:48.820Z,768.00
2019-05-07T08:45:48.608Z,765.00
2019-05-07T08:46:52.114Z,766.00
2019-05-07T08:47:50.042Z,765.00
2019-05-07T08:48:52.906Z,765.00
2019-05-07T08:49:52.352Z,766.00
2019-05-07T08:50:52.511Z,766.00
2019-05-07T08:51:52.669Z,766.00
2019-05-07T08:52:54.523Z,766.00
2019-05-07T08:53:55.423Z,766.00
2019-05-07T08:54:55.594Z,766.00
2019-05-07T08:55:56.316Z,766.00
2019-05-07T08:56:56.325Z,766.00
2019-05-07T08:57:57.108Z,766.00
2019-05-07T08:58:58.068Z,768.00
2019-05-07T09:00:01.629Z,765.00
2019-05-07T09:00:57.771Z,768.00
2019-05-07T09:01:59.509Z,768.00
2019-05-07T09:03:01.711Z,768.00
2019-05-07T09:03:59.938Z,768.00
2019-05-07T09:05:03.016Z,766.00
2019-05-07T09:06:02.469Z,766.00
2019-05-07T09:07:02.684Z,770.00
2019-05-07T09:08:02.350Z,766.00
2019-05-07T09:09:02.711Z,766.00
2019-05-07T09:10:03.583Z,768.00
2019-05-07T09:11:05.105Z,768.00
2019-05-07T09:12:05.918Z,769.00
2019-05-07T09:13:06.756Z,769.00
2019-05-07T09:14:07.003Z,768.00
2019-05-07T09:15:07.914Z,769.00
2019-05-07T09:16:08.559Z,766.00
2019-05-07T09:17:08.439Z,768.00
2019-05-07T09:18:09.550Z,768.00
2019-05-07T09:19:09.582Z,766.00
2019-05-07T09:20:12.129Z,768.00
2019-05-07T09:21:12.628Z,766.00
2019-05-07T09:22:12.487Z,766.00
2019-05-07T09:23:12.231Z,766.00
2019-05-07T09:24:12.308Z,769.00
2019-05-07T09:25:12.940Z,765.00
2019-05-07T09:26:13.171Z,765.00
2019-05-07T09:27:13.719Z,766.00
2019-05-07T09:28:15.500Z,766.00
2019-05-07T09:29:15.584Z,764.00
2019-05-07T09:30:17.572Z,766.00
2019-05-07T09:31:15.630Z,763.00
2019-05-07T09:32:16.483Z,763.00
2019-05-07T09:32:25.043Z,763.00
2019-05-07T09:33:26.548Z,764.00
2019-05-07T09:34:27.188Z,763.00
2019-05-07T09:35:27.886Z,763.00
2019-05-07T09:36:28.641Z,763.00
2019-05-07T09:37:28.866Z,763.00
2019-05-07T09:38:28.724Z,762.00
2019-05-07T09:39:32.463Z,761.00
2019-05-07T09:40:31.996Z,763.00
2019-05-07T09:41:32.772Z,763.00
2019-05-07T09:42:33.319Z,764.00
2019-05-07T09:43:32.607Z,763.00
2019-05-07T09:44:32.733Z,763.00
2019-05-07T09:45:34.559Z,763.00
2019-05-07T09:46:35.307Z,763.00
2019-05-07T09:47:35.379Z,763.00
2019-05-07T09:48:35.551Z,763.00
2019-05-07T09:49:36.095Z,763.00
2019-05-07T09:50:36.371Z,761.00
2019-05-07T09:51:37.254Z,762.00
2019-05-07T09:52:38.036Z,762.00
2019-05-07T09:53:37.452Z,761.00
2019-05-07T09:54:39.123Z,760.00
2019-05-07T09:55:39.794Z,761.00
2019-05-07T09:56:42.262Z,760.00
2019-05-07T09:57:42.451Z,762.00
2019-05-07T09:58:42.654Z,760.00
2019-05-07T09:59:42.632Z,761.00
2019-05-07T10:00:43.132Z,762.00
2019-05-07T10:01:44.901Z,762.00
2019-05-07T10:02:45.683Z,760.00
2019-05-07T10:03:46.605Z,762.00
2019-05-07T10:04:47.639Z,761.00
2019-05-07T10:05:47.426Z,762.00
2019-05-07T10:06:48.228Z,762.00
2019-05-07T10:07:49.179Z,763.00
2019-05-07T10:08:49.390Z,763.00
2019-05-07T10:09:52.297Z,762.00
2019-05-07T10:10:51.251Z,763.00
2019-05-07T10:11:52.341Z,764.00
2019-05-07T10:12:52.548Z,764.00
2019-05-07T10:13:52.404Z,763.00
2019-05-07T10:14:52.293Z,763.00
2019-05-07T10:15:52.617Z,762.00
2019-05-07T10:16:52.467Z,762.00
2019-05-07T10:17:52.071Z,760.00
2019-05-07T10:18:53.330Z,760.00
2019-05-07T10:19:54.318Z,762.00
2019-05-07T10:20:54.307Z,761.00
2019-05-07T10:21:55.137Z,760.00
2019-05-07T10:22:55.845Z,760.00
2019-05-07T10:23:56.705Z,760.00
2019-05-07T10:24:57.573Z,763.00
2019-05-07T10:25:58.301Z,760.00
2019-05-07T10:26:58.359Z,760.00
2019-05-07T10:27:58.454Z,763.00
2019-05-07T10:28:58.493Z,762.00
2019-05-07T10:29:59.401Z,760.00
2019-05-07T10:31:00.279Z,759.00
2019-05-07T10:31:08.807Z,760.00
2019-05-07T10:32:12.620Z,763.00
2019-05-07T10:33:09.656Z,763.00
2019-05-07T10:34:12.327Z,763.00
2019-05-07T10:35:12.791Z,762.00
2019-05-07T10:36:12.523Z,760.00
2019-05-07T10:37:12.848Z,760.00
2019-05-07T10:38:14.585Z,759.00
2019-05-07T10:39:15.420Z,760.00
2019-05-07T10:40:16.241Z,760.00
2019-05-07T10:41:16.566Z,760.00
2019-05-07T10:42:17.316Z,760.00
2019-05-07T10:43:18.074Z,759.00
2019-05-07T10:44:18.853Z,760.00
2019-05-07T10:45:21.817Z,762.00
2019-05-07T10:46:19.617Z,763.00
2019-05-07T10:47:22.291Z,763.00
2019-05-07T10:48:22.069Z,765.00
2019-05-07T10:49:22.611Z,765.00
2019-05-07T10:50:35.580Z,763.00
2019-05-07T10:51:23.440Z,763.00
2019-05-07T10:52:25.357Z,762.00
2019-05-07T10:53:25.519Z,762.00
2019-05-07T10:54:26.223Z,762.00
2019-05-07T10:55:27.208Z,763.00
2019-05-07T10:56:27.954Z,762.00
2019-05-07T10:57:28.712Z,763.00
2019-05-07T10:58:29.531Z,763.00
2019-05-07T10:59:30.266Z,763.00
2019-05-07T11:00:32.933Z,762.00
2019-05-07T11:01:32.763Z,763.00
2019-05-07T11:02:32.444Z,762.00
2019-05-07T11:03:32.564Z,762.00
2019-05-07T11:04:42.267Z,763.00
2019-05-07T11:05:33.995Z,765.00
2019-05-07T11:06:34.993Z,765.00
2019-05-07T11:07:35.718Z,764.00
2019-05-07T11:08:36.520Z,763.00
2019-05-07T11:09:37.513Z,765.00
2019-05-07T11:10:38.190Z,765.00
2019-05-07T11:11:39.057Z,764.00
2019-05-07T11:12:39.872Z,765.00
2019-05-07T11:13:42.222Z,764.00
2019-05-07T11:14:40.222Z,764.00
2019-05-07T11:15:42.906Z,763.00
2019-05-07T11:16:40.533Z,763.00
2019-05-07T11:17:42.255Z,763.00
2019-05-07T11:18:42.678Z,765.00
2019-05-07T11:19:42.029Z,766.00
2019-05-07T11:20:49.733Z,768.00
2019-05-07T11:21:43.572Z,768.00
2019-05-07T11:22:44.853Z,768.00
2019-05-07T11:23:44.996Z,766.00
2019-05-07T11:24:45.358Z,768.00
2019-05-07T11:25:46.158Z,768.00
2019-05-07T11:26:45.872Z,766.00
2019-05-07T11:27:47.680Z,765.00
2019-05-07T11:28:48.505Z,765.00
2019-05-07T11:29:49.142Z,765.00
2019-05-07T11:29:57.675Z,765.00
2019-05-07T11:30:59.426Z,765.00
2019-05-07T11:32:00.281Z,765.00
2019-05-07T11:33:02.654Z,764.00
2019-05-07T11:34:02.815Z,764.00
2019-05-07T11:35:03.138Z,763.00
2019-05-07T11:36:02.254Z,763.00
2019-05-07T11:37:02.550Z,762.00
2019-05-07T11:38:17.439Z,763.00
2019-05-07T11:39:03.234Z,763.00
2019-05-07T11:40:05.068Z,764.00
2019-05-07T11:41:05.151Z,763.00
2019-05-07T11:42:05.802Z,763.00
2019-05-07T11:43:06.160Z,762.00
2019-05-07T11:44:06.386Z,763.00
2019-05-07T11:45:07.104Z,762.00
2019-05-07T11:46:07.165Z,762.00
2019-05-07T11:47:08.043Z,763.00
2019-05-07T11:48:08.898Z,763.00
2019-05-07T11:49:11.574Z,762.00
2019-05-07T11:50:12.001Z,762.00
2019-05-07T11:51:12.353Z,762.00
2019-05-07T11:52:12.298Z,760.00
2019-05-07T11:53:11.501Z,760.00
2019-05-07T11:54:13.283Z,760.00
2019-05-07T11:55:14.033Z,760.00
2019-05-07T11:56:14.626Z,761.00
2019-05-07T11:57:15.593Z,760.00
2019-05-07T11:58:16.455Z,760.00
2019-05-07T11:59:16.517Z,760.00
2019-05-07T12:00:17.214Z,760.00
2019-05-07T12:01:17.377Z,759.00
2019-05-07T12:02:18.148Z,759.00
2019-05-07T12:03:18.981Z,760.00
2019-05-07T12:04:19.983Z,760.00
2019-05-07T12:05:22.638Z,759.00
2019-05-07T12:06:21.677Z,758.00
2019-05-07T12:07:22.336Z,759.00
2019-05-07T12:08:22.437Z,759.00
2019-05-07T12:09:22.474Z,758.00
2019-05-07T12:10:24.199Z,758.00
2019-05-07T12:11:25.066Z,758.00
2019-05-07T12:12:25.105Z,758.00
2019-05-07T12:13:25.816Z,759.00
2019-05-07T12:14:31.413Z,758.00
2019-05-07T12:15:25.555Z,759.00
2019-05-07T12:16:27.438Z,758.00
2019-05-07T12:17:28.205Z,759.00
2019-05-07T12:18:28.035Z,761.00
2019-05-07T12:19:29.601Z,760.00
2019-05-07T12:20:29.856Z,760.00
2019-05-07T12:21:30.404Z,759.00
2019-05-07T12:22:31.208Z,760.00
2019-05-07T12:22:57.861Z,762.00
2019-05-07T12:23:49.453Z,762.00
2019-05-07T12:24:52.040Z,762.00
2019-05-07T12:25:52.874Z,760.00
2019-05-07T12:26:52.227Z,760.00